createdAt,value
2023-01-23T00:01:57.014Z,23.90
2023-01-23T00:04:26.258Z,25.03
2023-01-23T00:06:55.171Z,26.07
2023-01-23T00:09:24.531Z,24.53
2023-01-23T00:11:52.921Z,24.90
2023-01-23T00:14:22.780Z,26.00
2023-01-23T00:16:51.212Z,25.83
2023-01-23T00:19:21.857Z,24.67
2023-01-23T00:21:50.309Z,24.87
2023-01-23T00:24:19.631Z,24.83
2023-01-23T00:26:48.023Z,24.30
2023-01-23T00:29:16.518Z,26.10
2023-01-23T00:31:46.557Z,23.93
2023-01-23T00:34:21.463Z,24.67
2023-01-23T00:36:49.949Z,22.37
2023-01-23T00:39:21.116Z,24.53
2023-01-23T00:41:50.552Z,23.63
2023-01-23T00:44:20.389Z,24.43
2023-01-23T06:53:43.743Z,18.40
2023-01-23T06:59:46.296Z,20.13
2023-01-23T07:33:21.630Z,17.60
2023-01-23T08:46:05.257Z,21.30
2023-01-23T08:48:35.447Z,24.50
2023-01-23T08:51:06.774Z,26.17
2023-01-23T08:53:36.263Z,27.93
2023-01-23T09:15:33.206Z,24.37
2023-01-23T11:06:26.375Z,16.33
2023-01-23T11:08:58.899Z,16.80
2023-01-23T11:11:30.071Z,17.50
2023-01-23T11:39:32.924Z,15.53
2023-01-23T11:42:28.498Z,15.83
2023-01-23T11:48:36.508Z,17.13
2023-01-23T11:54:06.017Z,17.57
2023-01-23T14:31:34.869Z,15.07
2023-01-23T14:34:10.407Z,14.67
2023-01-23T14:36:47.673Z,14.27
2023-01-23T14:43:50.339Z,14.50
2023-01-23T15:32:01.797Z,18.03
2023-01-23T16:01:03.352Z,16.87
2023-01-23T16:18:16.489Z,20.73
2023-01-23T16:23:55.436Z,17.57
2023-01-23T16:26:26.966Z,18.03
2023-01-23T16:29:12.083Z,18.27
2023-01-23T16:31:46.483Z,17.37
2023-01-23T16:34:15.390Z,17.87
2023-01-23T16:36:46.094Z,17.70
2023-01-23T16:39:19.124Z,18.03
2023-01-23T16:41:49.606Z,17.83
2023-01-23T16:44:22.886Z,16.60
2023-01-23T16:46:52.988Z,18.70
2023-01-23T16:49:24.081Z,17.23
2023-01-23T16:51:59.623Z,18.50
2023-01-23T16:54:29.631Z,18.40
2023-01-23T16:56:59.710Z,17.60
2023-01-23T16:59:56.817Z,17.77
2023-01-23T17:02:33.466Z,19.07
2023-01-23T17:09:14.315Z,17.33
2023-01-23T17:11:47.741Z,17.20
2023-01-23T17:28:00.678Z,35.97
2023-01-23T17:30:35.401Z,30.13
2023-01-23T18:13:15.273Z,19.10
2023-01-23T18:30:20.442Z,16.60
2023-01-23T18:37:03.696Z,17.83
2023-01-23T19:32:46.249Z,17.57
2023-01-23T19:39:07.223Z,16.87
2023-01-23T20:18:53.381Z,16.23
2023-01-23T21:11:28.616Z,16.53
2023-01-23T21:13:57.332Z,16.07
2023-01-23T21:16:26.666Z,16.70
2023-01-23T21:18:55.463Z,15.33
2023-01-23T21:21:26.783Z,16.70
2023-01-23T21:44:34.797Z,16.30
2023-01-23T21:47:04.615Z,16.80
2023-01-23T21:49:34.245Z,17.10
2023-01-23T21:52:03.115Z,16.80
2023-01-23T22:11:21.706Z,18.63
2023-01-23T22:13:52.045Z,16.43
2023-01-23T22:16:25.572Z,17.30
2023-01-23T22:32:51.297Z,19.50
2023-01-23T22:35:19.767Z,19.53
2023-01-23T22:37:48.695Z,19.07
2023-01-23T22:40:17.657Z,19.37
2023-01-23T22:42:45.898Z,18.13
2023-01-23T22:45:14.333Z,19.23
2023-01-23T22:47:43.454Z,19.23
2023-01-23T22:50:13.760Z,18.47
2023-01-23T22:52:42.265Z,17.03
2023-01-23T22:55:19.702Z,18.50
2023-01-23T22:58:00.121Z,17.27
2023-01-23T23:00:31.206Z,19.07
2023-01-23T23:03:09.152Z,18.63
2023-01-23T23:05:40.838Z,17.83
2023-01-23T23:08:09.697Z,17.93
2023-01-23T23:10:38.369Z,16.80
2023-01-23T23:13:06.614Z,18.90
2023-01-23T23:15:36.545Z,19.63
2023-01-23T23:18:05.128Z,19.40
2023-01-23T23:20:34.272Z,18.33
2023-01-23T23:23:03.871Z,18.03
2023-01-23T23:25:32.951Z,17.87
2023-01-23T23:28:01.560Z,19.50
2023-01-23T23:30:30.223Z,18.70
2023-01-23T23:32:58.926Z,18.57
2023-01-23T23:35:27.183Z,18.33
2023-01-23T23:37:56.414Z,19.67
2023-01-23T23:40:26.024Z,19.63
2023-01-23T23:42:56.373Z,19.00
2023-01-23T23:45:31.355Z,18.73
2023-01-23T23:48:00.421Z,19.67
2023-01-23T23:50:29.119Z,18.73
2023-01-23T23:52:57.468Z,18.57
2023-01-23T23:55:27.755Z,18.40
